createdAt,value
2023-02-16T00:00:47.537Z,0.00
2023-02-16T00:01:47.496Z,0.00
2023-02-16T00:02:47.517Z,0.00
2023-02-16T00:03:47.468Z,0.00
2023-02-16T00:04:47.381Z,0.00
2023-02-16T00:05:47.338Z,0.00
2023-02-16T00:06:47.310Z,0.00
2023-02-16T00:07:47.276Z,0.00
2023-02-16T00:08:47.232Z,0.00
2023-02-16T00:09:47.180Z,0.00
2023-02-16T00:10:47.179Z,0.00
2023-02-16T00:11:47.104Z,0.00
2023-02-16T00:12:47.071Z,0.00
2023-02-16T00:13:47.040Z,0.00
2023-02-16T00:14:46.993Z,0.00
2023-02-16T00:15:46.991Z,0.00
2023-02-16T00:16:46.917Z,0.00
2023-02-16T00:17:46.878Z,0.00
2023-02-16T00:18:46.839Z,0.00
2023-02-16T00:19:46.795Z,0.00
2023-02-16T00:20:46.773Z,0.00
2023-02-16T00:21:46.722Z,0.00
2023-02-16T00:22:46.691Z,0.00
2023-02-16T00:23:46.640Z,0.00
2023-02-16T00:24:46.608Z,0.00
2023-02-16T00:25:46.570Z,0.00
2023-02-16T00:26:46.544Z,0.00
2023-02-16T00:27:46.488Z,0.00
2023-02-16T00:28:46.444Z,0.00
2023-02-16T00:29:46.415Z,0.00
2023-02-16T00:30:46.418Z,0.00
2023-02-16T00:31:46.511Z,0.00
2023-02-16T00:32:46.293Z,0.00
2023-02-16T00:33:46.262Z,0.00
2023-02-16T00:34:46.230Z,0.00
2023-02-16T00:35:46.175Z,0.00
2023-02-16T00:36:46.141Z,0.00
2023-02-16T00:37:46.101Z,0.00
2023-02-16T00:38:46.058Z,0.00
2023-02-16T00:39:46.022Z,0.00
2023-02-16T00:40:45.991Z,0.00
2023-02-16T00:41:45.945Z,0.00
2023-02-16T00:42:45.899Z,0.00
2023-02-16T00:43:45.877Z,0.00
2023-02-16T00:44:45.834Z,0.00
2023-02-16T00:45:45.793Z,0.00
2023-02-16T00:46:45.756Z,0.00
2023-02-16T00:47:45.712Z,0.00
2023-02-16T00:48:45.667Z,0.00
2023-02-16T00:49:45.641Z,0.00
2023-02-16T00:50:45.605Z,0.00
2023-02-16T00:51:45.561Z,0.00
2023-02-16T00:52:45.518Z,0.00
2023-02-16T00:53:45.475Z,0.00
2023-02-16T00:54:45.432Z,0.00
2023-02-16T00:55:45.408Z,0.00
2023-02-16T00:56:45.358Z,0.00
2023-02-16T00:57:45.318Z,0.00
2023-02-16T00:58:45.279Z,0.00
2023-02-16T00:59:45.240Z,0.00
2023-02-16T01:00:45.203Z,0.00
2023-02-16T01:01:45.229Z,0.00
2023-02-16T01:02:45.124Z,0.00
2023-02-16T01:03:45.138Z,0.00
2023-02-16T01:04:45.065Z,0.00
2023-02-16T01:05:45.042Z,0.00
2023-02-16T01:06:44.966Z,0.00
2023-02-16T01:07:44.936Z,0.00
2023-02-16T01:08:44.895Z,0.00
2023-02-16T01:09:44.845Z,0.00
2023-02-16T01:10:44.821Z,0.00
2023-02-16T01:11:44.781Z,0.00
2023-02-16T01:12:44.729Z,0.00
2023-02-16T01:13:44.690Z,0.00
2023-02-16T01:14:44.648Z,0.00
2023-02-16T01:15:44.639Z,0.00
2023-02-16T01:16:44.570Z,0.00
2023-02-16T01:17:44.558Z,0.00
2023-02-16T01:18:44.487Z,0.00
2023-02-16T01:19:44.448Z,0.00
2023-02-16T01:20:44.421Z,0.00
2023-02-16T01:21:44.379Z,0.00
2023-02-16T01:22:44.331Z,0.00
2023-02-16T01:23:44.293Z,0.00
2023-02-16T01:24:44.256Z,0.00
2023-02-16T01:25:44.334Z,0.00
2023-02-16T01:26:44.198Z,0.00
2023-02-16T01:27:44.148Z,0.00
2023-02-16T01:28:44.105Z,0.00
2023-02-16T01:29:44.068Z,0.00
2023-02-16T01:30:44.022Z,0.00
2023-02-16T01:31:44.154Z,0.00
2023-02-16T01:32:43.944Z,0.00
2023-02-16T01:33:43.908Z,0.00
2023-02-16T01:34:43.862Z,0.00
2023-02-16T01:35:43.821Z,0.00
2023-02-16T01:36:43.800Z,0.00
2023-02-16T01:37:43.747Z,0.00
2023-02-16T01:38:43.710Z,0.00
2023-02-16T01:39:43.696Z,0.00
2023-02-16T01:40:43.628Z,0.00
2023-02-16T01:41:43.600Z,0.00
2023-02-16T01:42:43.558Z,0.00
2023-02-16T01:43:43.631Z,0.00
2023-02-16T01:44:43.472Z,0.00
2023-02-16T01:45:43.433Z,0.00
2023-02-16T01:46:43.497Z,0.00
2023-02-16T01:47:43.364Z,0.00
2023-02-16T01:48:43.323Z,0.00
2023-02-16T01:49:43.274Z,0.00
2023-02-16T01:50:43.242Z,0.00
2023-02-16T01:51:43.198Z,0.00
2023-02-16T01:52:43.204Z,0.00
2023-02-16T01:53:43.146Z,0.00
2023-02-16T01:54:43.098Z,0.00
2023-02-16T01:55:43.061Z,0.00
2023-02-16T01:56:43.012Z,0.00
2023-02-16T01:57:42.966Z,0.00
2023-02-16T01:58:42.920Z,0.00
2023-02-16T01:59:42.891Z,0.00
2023-02-16T02:00:42.844Z,0.00
2023-02-16T02:01:42.868Z,0.00
2023-02-16T02:02:42.844Z,0.00
2023-02-16T02:03:42.744Z,0.00
2023-02-16T02:04:42.689Z,0.00
2023-02-16T02:05:42.646Z,0.00
2023-02-16T02:06:42.618Z,0.00
2023-02-16T02:07:42.595Z,0.00
2023-02-16T02:08:42.543Z,0.00
2023-02-16T02:09:42.501Z,0.00
2023-02-16T02:10:42.449Z,0.00
2023-02-16T02:11:42.415Z,0.00
2023-02-16T02:12:42.401Z,0.00
2023-02-16T02:13:42.351Z,0.00
2023-02-16T02:14:42.294Z,0.00
2023-02-16T02:15:42.309Z,0.00
2023-02-16T02:16:42.222Z,0.00
2023-02-16T02:17:42.180Z,0.00
2023-02-16T02:18:42.137Z,0.00
2023-02-16T02:19:42.100Z,0.00
2023-02-16T02:20:42.064Z,0.00
2023-02-16T02:21:42.022Z,0.00
2023-02-16T02:22:41.976Z,0.00
2023-02-16T02:23:41.945Z,0.00
2023-02-16T02:24:41.903Z,0.00
2023-02-16T02:25:41.859Z,0.00
2023-02-16T02:26:41.823Z,0.00
2023-02-16T02:27:41.785Z,0.00
2023-02-16T02:28:41.740Z,0.00
2023-02-16T02:29:41.714Z,0.00
2023-02-16T02:30:41.667Z,0.00
2023-02-16T02:31:41.792Z,0.00
2023-02-16T02:32:41.583Z,0.00
2023-02-16T02:33:41.552Z,0.00
2023-02-16T02:34:41.511Z,0.00
2023-02-16T02:35:41.465Z,0.00
2023-02-16T02:36:41.426Z,0.00
2023-02-16T02:37:41.383Z,0.00
2023-02-16T02:38:41.348Z,0.00
2023-02-16T02:39:41.315Z,0.00
2023-02-16T02:40:41.271Z,0.00
2023-02-16T02:41:41.229Z,0.00
2023-02-16T02:42:41.185Z,0.00
2023-02-16T02:43:41.156Z,0.00
2023-02-16T02:44:41.113Z,0.00
2023-02-16T02:45:41.079Z,0.00
2023-02-16T02:46:41.083Z,0.00
2023-02-16T02:47:41.001Z,0.00
2023-02-16T02:48:40.968Z,0.00
2023-02-16T02:49:40.921Z,0.00
2023-02-16T02:50:40.873Z,0.00
2023-02-16T02:51:40.865Z,0.00
2023-02-16T02:52:40.797Z,0.00
2023-02-16T02:53:40.763Z,0.00
2023-02-16T02:54:40.720Z,0.00
2023-02-16T02:55:40.682Z,0.00
2023-02-16T02:56:40.639Z,0.00
2023-02-16T02:57:40.608Z,0.00
2023-02-16T02:58:40.558Z,0.00
2023-02-16T02:59:40.524Z,0.00
2023-02-16T03:00:40.517Z,0.00
2023-02-16T03:01:40.464Z,0.00
2023-02-16T03:02:40.401Z,0.00
2023-02-16T03:03:40.371Z,0.00
2023-02-16T03:04:40.331Z,0.00
2023-02-16T03:05:40.285Z,0.00
2023-02-16T03:06:40.243Z,0.00
2023-02-16T03:07:40.206Z,0.00
2023-02-16T03:08:40.166Z,0.00
2023-02-16T03:09:40.129Z,0.00
2023-02-16T03:10:40.086Z,0.00
2023-02-16T03:11:40.047Z,0.00
2023-02-16T03:12:40.016Z,0.00
2023-02-16T03:13:39.988Z,0.00
2023-02-16T03:14:39.925Z,0.00
2023-02-16T03:15:39.890Z,0.00
2023-02-16T03:16:39.957Z,0.00
2023-02-16T03:17:39.808Z,0.00
2023-02-16T03:18:39.767Z,0.00
2023-02-16T03:19:39.829Z,0.00
2023-02-16T03:20:39.692Z,0.00
2023-02-16T03:21:39.649Z,0.00
2023-02-16T03:22:39.611Z,0.00
2023-02-16T03:23:39.569Z,0.00
2023-02-16T03:24:39.539Z,0.00
2023-02-16T03:25:39.500Z,0.00
2023-02-16T03:26:39.451Z,0.00
2023-02-16T03:27:39.414Z,0.00
2023-02-16T03:28:39.373Z,0.00
2023-02-16T03:29:39.341Z,0.00
2023-02-16T03:30:39.361Z,0.00
2023-02-16T03:31:39.361Z,0.00
2023-02-16T03:32:39.213Z,0.00
2023-02-16T03:33:39.213Z,0.00
2023-02-16T03:34:39.131Z,0.00
2023-02-16T03:35:39.103Z,0.00
2023-02-16T03:36:39.055Z,0.00
2023-02-16T03:37:39.021Z,0.00
2023-02-16T03:38:38.977Z,0.00
2023-02-16T03:39:38.938Z,0.00
2023-02-16T03:40:38.897Z,0.00
2023-02-16T03:41:38.869Z,0.00
2023-02-16T03:42:38.811Z,0.00
2023-02-16T03:43:38.784Z,0.00
2023-02-16T03:44:38.744Z,0.00
2023-02-16T03:45:38.750Z,0.00
2023-02-16T03:46:38.665Z,0.00
2023-02-16T03:47:38.623Z,0.00
2023-02-16T03:48:38.576Z,0.00
2023-02-16T03:49:38.538Z,0.00
2023-02-16T03:50:38.518Z,0.00
2023-02-16T03:51:38.520Z,0.00
2023-02-16T03:52:38.427Z,0.00
2023-02-16T03:53:38.378Z,0.00
2023-02-16T03:54:38.345Z,0.00
2023-02-16T03:55:38.306Z,0.00
2023-02-16T03:56:38.278Z,0.00
2023-02-16T03:57:38.233Z,0.00
2023-02-16T03:58:38.184Z,0.00
2023-02-16T03:59:38.147Z,0.00
2023-02-16T04:00:38.112Z,0.00
2023-02-16T04:01:38.078Z,0.00
2023-02-16T04:02:38.027Z,0.00
2023-02-16T04:03:37.989Z,0.00
2023-02-16T04:04:37.952Z,0.00
2023-02-16T04:05:37.908Z,0.00
2023-02-16T04:06:37.874Z,0.00
2023-02-16T04:07:37.838Z,0.00
2023-02-16T04:08:37.795Z,0.00
2023-02-16T04:09:37.754Z,0.00
2023-02-16T04:10:37.711Z,0.00
2023-02-16T04:11:37.680Z,0.00
2023-02-16T04:12:37.660Z,0.00
2023-02-16T04:13:37.596Z,0.00
2023-02-16T04:14:37.561Z,0.00
2023-02-16T04:15:37.519Z,0.00
2023-02-16T04:16:37.499Z,0.00
2023-02-16T04:17:37.435Z,0.00
2023-02-16T04:18:37.395Z,0.00
2023-02-16T04:19:37.359Z,0.00
2023-02-16T04:20:37.326Z,0.00
2023-02-16T04:21:37.295Z,0.00
2023-02-16T04:22:37.248Z,0.00
2023-02-16T04:23:37.198Z,0.00
2023-02-16T04:24:37.164Z,0.00
2023-02-16T04:25:37.124Z,0.00
2023-02-16T04:26:37.079Z,0.00
2023-02-16T04:27:37.036Z,0.00
2023-02-16T04:28:37.009Z,0.00
2023-02-16T04:29:36.957Z,0.00
2023-02-16T04:30:37.117Z,0.00
2023-02-16T04:31:37.056Z,0.00
2023-02-16T04:32:36.841Z,0.00
2023-02-16T04:33:36.798Z,0.00
2023-02-16T04:34:36.766Z,0.00
2023-02-16T04:35:36.718Z,0.00
2023-02-16T04:36:36.688Z,0.00
2023-02-16T04:37:36.641Z,0.00
2023-02-16T04:38:36.608Z,0.00
2023-02-16T04:39:36.559Z,0.00
2023-02-16T04:40:36.517Z,0.00
2023-02-16T04:41:36.490Z,0.00
2023-02-16T04:42:36.441Z,0.00
2023-02-16T04:43:36.409Z,0.00
2023-02-16T04:44:36.366Z,0.00
2023-02-16T04:45:36.327Z,0.00
2023-02-16T04:46:36.280Z,0.00
2023-02-16T04:47:36.243Z,0.00
2023-02-16T04:48:36.238Z,0.00
2023-02-16T04:49:36.176Z,0.00
2023-02-16T04:50:36.120Z,0.00
2023-02-16T04:51:36.085Z,0.00
2023-02-16T04:52:36.044Z,0.00
2023-02-16T04:53:36.008Z,0.00
2023-02-16T04:54:35.975Z,0.00
2023-02-16T04:55:35.935Z,0.00
2023-02-16T04:56:35.884Z,0.00
2023-02-16T04:57:35.844Z,0.00
2023-02-16T04:58:35.804Z,0.00
2023-02-16T04:59:35.772Z,0.00
2023-02-16T05:00:36.694Z,0.00
2023-02-16T05:01:35.725Z,0.00
2023-02-16T05:02:35.651Z,0.00
2023-02-16T05:03:35.617Z,0.00
2023-02-16T05:04:35.629Z,0.00
2023-02-16T05:05:35.593Z,0.00
2023-02-16T05:06:35.488Z,0.00
2023-02-16T05:07:35.447Z,0.00
2023-02-16T05:08:35.410Z,0.00
2023-02-16T05:09:35.369Z,0.00
2023-02-16T05:10:35.330Z,0.00
2023-02-16T05:11:35.299Z,0.00
2023-02-16T05:12:35.286Z,0.00
2023-02-16T05:13:35.219Z,0.00
2023-02-16T05:14:35.197Z,0.00
2023-02-16T05:15:35.194Z,0.00
2023-02-16T05:16:35.093Z,0.00
2023-02-16T05:17:35.057Z,0.00
2023-02-16T05:18:35.021Z,0.00
2023-02-16T05:19:34.981Z,0.00
2023-02-16T05:20:34.940Z,0.00
2023-02-16T05:21:34.892Z,0.00
2023-02-16T05:22:34.849Z,0.00
2023-02-16T05:23:34.812Z,0.00
2023-02-16T05:24:34.786Z,0.00
2023-02-16T05:25:34.732Z,0.00
2023-02-16T05:26:34.699Z,0.00
2023-02-16T05:27:34.653Z,0.00
2023-02-16T05:28:34.656Z,0.00
2023-02-16T05:29:34.579Z,0.00
2023-02-16T05:30:34.630Z,0.00
2023-02-16T05:31:34.649Z,0.00
2023-02-16T05:32:34.469Z,0.00
2023-02-16T05:33:34.424Z,0.00
2023-02-16T05:34:34.378Z,0.00
2023-02-16T05:35:34.350Z,0.00
2023-02-16T05:36:34.307Z,0.00
2023-02-16T05:37:34.263Z,0.00
2023-02-16T05:38:34.256Z,0.00
2023-02-16T05:39:34.181Z,0.00
2023-02-16T05:40:34.149Z,0.00
2023-02-16T05:41:34.108Z,0.00
2023-02-16T05:42:34.072Z,0.00
2023-02-16T05:43:34.030Z,0.00
2023-02-16T05:44:33.985Z,0.00
2023-02-16T05:45:33.947Z,0.00
2023-02-16T05:46:34.076Z,0.00
2023-02-16T05:47:33.868Z,0.00
2023-02-16T05:48:33.834Z,0.00
2023-02-16T05:49:33.790Z,0.00
2023-02-16T05:50:33.754Z,0.00
2023-02-16T05:51:33.712Z,0.00
2023-02-16T05:52:33.680Z,0.00
2023-02-16T05:53:33.651Z,0.00
2023-02-16T05:54:33.595Z,0.00
2023-02-16T05:55:33.549Z,0.00
2023-02-16T05:56:33.514Z,0.00
2023-02-16T05:57:33.472Z,0.00
2023-02-16T05:58:33.434Z,0.00
2023-02-16T05:59:33.401Z,0.00
2023-02-16T06:00:33.361Z,0.00
2023-02-16T06:01:33.320Z,0.00
2023-02-16T06:02:33.322Z,0.00
2023-02-16T06:03:33.275Z,0.00
2023-02-16T06:04:33.203Z,0.00
2023-02-16T06:05:33.157Z,0.00
2023-02-16T06:06:33.114Z,0.00
2023-02-16T06:07:33.076Z,0.00
2023-02-16T06:08:33.041Z,0.00
2023-02-16T06:09:33.001Z,0.00
2023-02-16T06:10:32.969Z,0.00
2023-02-16T06:11:32.920Z,0.00
2023-02-16T06:12:32.884Z,0.00
2023-02-16T06:13:32.859Z,0.00
2023-02-16T06:14:32.829Z,0.00
2023-02-16T06:15:32.786Z,0.00
2023-02-16T06:16:32.725Z,0.00
2023-02-16T06:17:32.680Z,0.00
2023-02-16T06:18:32.684Z,0.00
2023-02-16T06:19:32.610Z,0.00
2023-02-16T06:20:32.563Z,0.00
2023-02-16T06:21:32.533Z,0.00
2023-02-16T06:22:32.488Z,0.00
2023-02-16T06:23:32.443Z,0.00
2023-02-16T06:24:32.419Z,4.00
2023-02-16T06:25:32.384Z,4.00
2023-02-16T06:26:32.328Z,0.00
2023-02-16T06:27:32.287Z,4.00
2023-02-16T06:28:32.247Z,4.00
2023-02-16T06:29:32.237Z,4.00
2023-02-16T06:30:32.226Z,4.00
2023-02-16T06:31:34.527Z,8.00
2023-02-16T06:32:32.153Z,4.00
2023-02-16T06:33:32.058Z,8.00
2023-02-16T06:34:32.011Z,8.00
2023-02-16T06:35:32.005Z,8.00
2023-02-16T06:36:31.939Z,12.00
2023-02-16T06:37:31.895Z,12.00
2023-02-16T06:38:31.852Z,12.00
2023-02-16T06:39:31.859Z,20.00
2023-02-16T06:40:31.789Z,16.00
2023-02-16T06:41:32.102Z,20.00
2023-02-16T06:42:31.698Z,24.00
2023-02-16T06:43:31.737Z,24.00
2023-02-16T06:44:31.622Z,32.00
2023-02-16T06:45:31.582Z,32.00
2023-02-16T06:46:31.650Z,40.00
2023-02-16T06:47:31.516Z,40.00
2023-02-16T06:48:31.460Z,48.00
2023-02-16T06:49:31.447Z,52.00
2023-02-16T06:50:31.382Z,60.00
2023-02-16T06:51:31.352Z,68.00
2023-02-16T06:52:31.301Z,72.00
2023-02-16T06:53:31.272Z,80.00
2023-02-16T06:54:31.285Z,84.00
2023-02-16T06:55:31.189Z,92.00
2023-02-16T06:56:31.148Z,96.00
2023-02-16T06:57:31.109Z,100.00
2023-02-16T06:58:31.065Z,108.00
2023-02-16T06:59:31.025Z,116.00
2023-02-16T07:00:31.155Z,120.00
2023-02-16T07:01:30.961Z,128.00
2023-02-16T07:02:30.908Z,132.00
2023-02-16T07:03:31.036Z,136.00
2023-02-16T07:04:30.840Z,144.00
2023-02-16T07:05:30.792Z,152.00
2023-02-16T07:06:30.757Z,156.00
2023-02-16T07:07:30.719Z,160.00
2023-02-16T07:08:30.681Z,164.00
2023-02-16T07:09:30.642Z,168.00
2023-02-16T07:10:40.358Z,172.00
2023-02-16T07:11:30.560Z,176.00
2023-02-16T07:12:30.519Z,180.00
2023-02-16T07:13:30.483Z,184.00
2023-02-16T07:14:30.437Z,184.00
2023-02-16T07:15:30.409Z,180.00
2023-02-16T07:16:30.454Z,180.00
2023-02-16T07:17:30.323Z,172.00
2023-02-16T07:18:30.285Z,168.00
2023-02-16T07:19:30.256Z,164.00
2023-02-16T07:20:30.212Z,164.00
2023-02-16T07:21:30.167Z,164.00
2023-02-16T07:22:30.135Z,168.00
2023-02-16T07:23:30.089Z,172.00
2023-02-16T07:24:30.054Z,176.00
2023-02-16T07:25:30.016Z,176.00
2023-02-16T07:26:29.988Z,180.00
2023-02-16T07:27:29.932Z,184.00
2023-02-16T07:28:29.902Z,184.00
2023-02-16T07:29:29.873Z,184.00
2023-02-16T07:30:29.932Z,176.00
2023-02-16T07:31:29.913Z,172.00
2023-02-16T07:32:29.843Z,172.00
2023-02-16T07:33:29.699Z,176.00
2023-02-16T07:34:29.659Z,176.00
2023-02-16T07:35:29.651Z,180.00
2023-02-16T07:36:29.588Z,192.00
2023-02-16T07:37:29.544Z,204.00
2023-02-16T07:38:29.509Z,220.00
2023-02-16T07:39:29.464Z,244.00
2023-02-16T07:40:29.439Z,268.00
2023-02-16T07:41:29.396Z,284.00
2023-02-16T07:42:29.352Z,296.00
2023-02-16T07:43:29.309Z,308.00
2023-02-16T07:44:29.270Z,312.00
2023-02-16T07:45:29.297Z,308.00
2023-02-16T07:46:30.483Z,308.00
2023-02-16T07:47:29.158Z,308.00
2023-02-16T07:48:29.132Z,312.00
2023-02-16T07:49:29.076Z,316.00
2023-02-16T07:50:29.048Z,324.00
2023-02-16T07:51:29.032Z,332.00
2023-02-16T07:52:28.967Z,344.00
2023-02-16T07:53:28.922Z,360.00
2023-02-16T07:54:28.887Z,380.00
2023-02-16T07:55:28.878Z,396.00
2023-02-16T07:56:28.806Z,412.00
2023-02-16T07:57:28.766Z,424.00
2023-02-16T07:58:28.801Z,440.00
2023-02-16T07:59:28.727Z,464.00
2023-02-16T08:00:28.654Z,480.00
2023-02-16T08:01:28.611Z,500.00
2023-02-16T08:02:28.696Z,512.00
2023-02-16T08:03:28.571Z,516.00
2023-02-16T08:04:28.500Z,528.00
2023-02-16T08:05:28.457Z,536.00
2023-02-16T08:06:28.431Z,548.00
2023-02-16T08:07:28.384Z,552.00
2023-02-16T08:08:28.347Z,556.00
2023-02-16T08:09:28.306Z,544.00
2023-02-16T08:10:28.273Z,536.00
2023-02-16T08:11:28.238Z,528.00
2023-02-16T08:12:28.196Z,540.00
2023-02-16T08:13:28.154Z,548.00
2023-02-16T08:14:28.119Z,568.00
2023-02-16T08:15:28.080Z,596.00
2023-02-16T08:16:28.153Z,636.00
2023-02-16T08:17:28.006Z,676.00
2023-02-16T08:18:27.998Z,716.00
2023-02-16T08:19:27.926Z,744.00
2023-02-16T08:20:46.069Z,776.00
2023-02-16T08:21:27.854Z,812.00
2023-02-16T08:22:27.813Z,848.00
2023-02-16T08:23:27.789Z,872.00
2023-02-16T08:24:27.737Z,880.00
2023-02-16T08:25:27.727Z,884.00
2023-02-16T08:26:27.667Z,896.00
2023-02-16T08:27:27.623Z,920.00
2023-02-16T08:28:27.591Z,932.00
2023-02-16T08:29:27.555Z,908.00
2023-02-16T08:30:27.547Z,888.00
2023-02-16T08:31:27.587Z,876.00
2023-02-16T08:32:27.536Z,872.00
2023-02-16T08:33:27.399Z,860.00
2023-02-16T08:34:27.417Z,856.00
2023-02-16T08:35:27.319Z,856.00
2023-02-16T08:36:27.288Z,860.00
2023-02-16T08:37:27.250Z,860.00
2023-02-16T08:38:27.212Z,852.00
2023-02-16T08:39:27.226Z,852.00
2023-02-16T08:40:27.144Z,856.00
2023-02-16T08:41:27.099Z,868.00
2023-02-16T08:42:27.057Z,876.00
2023-02-16T08:43:27.029Z,888.00
2023-02-16T08:44:27.077Z,904.00
2023-02-16T08:45:26.949Z,940.00
2023-02-16T08:46:26.924Z,964.00
2023-02-16T08:47:26.867Z,960.00
2023-02-16T08:48:26.846Z,972.00
2023-02-16T08:49:26.792Z,984.00
2023-02-16T08:50:26.765Z,972.00
2023-02-16T08:51:26.714Z,948.00
2023-02-16T08:52:26.679Z,908.00
2023-02-16T08:53:26.745Z,868.00
2023-02-16T08:54:26.653Z,844.00
2023-02-16T08:55:26.580Z,812.00
2023-02-16T08:56:26.540Z,804.00
2023-02-16T08:57:26.492Z,816.00
2023-02-16T08:58:26.457Z,852.00
2023-02-16T08:59:28.485Z,836.00
2023-02-16T09:00:26.379Z,864.00
2023-02-16T09:01:26.375Z,936.00
2023-02-16T09:02:26.342Z,1000.00
2023-02-16T09:03:26.274Z,1124.00
2023-02-16T09:04:26.262Z,1212.00
2023-02-16T09:05:26.198Z,1244.00
2023-02-16T09:06:26.152Z,1284.00
2023-02-16T09:07:26.128Z,1300.00
2023-02-16T09:08:26.079Z,1320.00
2023-02-16T09:09:26.051Z,1364.00
2023-02-16T09:10:26.006Z,1396.00
2023-02-16T09:11:25.975Z,1412.00
2023-02-16T09:12:25.935Z,1452.00
2023-02-16T09:13:25.898Z,1528.00
2023-02-16T09:14:25.868Z,1572.00
2023-02-16T09:15:25.822Z,1592.00
2023-02-16T09:16:25.794Z,1660.00
2023-02-16T09:17:25.744Z,1684.00
2023-02-16T09:18:25.714Z,1712.00
2023-02-16T09:19:25.668Z,1740.00
2023-02-16T09:20:25.636Z,1800.00
2023-02-16T09:21:25.700Z,1888.00
2023-02-16T09:22:25.569Z,1992.00
2023-02-16T09:23:25.522Z,2048.00
2023-02-16T09:24:25.486Z,2076.00
2023-02-16T09:25:25.481Z,2104.00
2023-02-16T09:26:25.414Z,2084.00
2023-02-16T09:27:40.003Z,2056.00
2023-02-16T09:28:25.359Z,2028.00
2023-02-16T09:29:25.300Z,1988.00
2023-02-16T09:30:25.345Z,1984.00
2023-02-16T09:31:25.384Z,1928.00
2023-02-16T09:32:25.191Z,1892.00
2023-02-16T09:33:25.153Z,1848.00
2023-02-16T09:34:27.527Z,1788.00
2023-02-16T09:35:25.089Z,1784.00
2023-02-16T09:36:25.052Z,1780.00
2023-02-16T09:37:25.014Z,1760.00
2023-02-16T09:38:24.972Z,1756.00
2023-02-16T09:39:24.940Z,1740.00
2023-02-16T09:40:24.898Z,1716.00
2023-02-16T09:41:24.861Z,1664.00
2023-02-16T09:42:24.826Z,1596.00
2023-02-16T09:43:24.799Z,1512.00
2023-02-16T09:44:24.752Z,1424.00
2023-02-16T09:45:24.725Z,1336.00
2023-02-16T09:46:24.695Z,1256.00
2023-02-16T09:47:24.646Z,1200.00
2023-02-16T09:48:24.625Z,1148.00
2023-02-16T09:49:24.583Z,1112.00
2023-02-16T09:50:50.422Z,1084.00
2023-02-16T09:51:33.854Z,1060.00
2023-02-16T09:52:24.464Z,1052.00
2023-02-16T09:53:24.448Z,1056.00
2023-02-16T09:54:24.402Z,1064.00
2023-02-16T09:55:24.358Z,1060.00
2023-02-16T09:56:24.327Z,1056.00
2023-02-16T09:57:24.309Z,1044.00
2023-02-16T09:58:24.257Z,1028.00
2023-02-16T09:59:24.237Z,1020.00
2023-02-16T10:00:24.182Z,1020.00
2023-02-16T10:01:24.150Z,1012.00
2023-02-16T10:02:24.134Z,1012.00
2023-02-16T10:03:24.074Z,1004.00
2023-02-16T10:04:24.041Z,992.00
2023-02-16T10:05:24.007Z,972.00
2023-02-16T10:06:24.004Z,952.00
2023-02-16T10:07:23.930Z,940.00
2023-02-16T10:08:23.895Z,924.00
2023-02-16T10:09:23.854Z,904.00
2023-02-16T10:10:23.828Z,876.00
2023-02-16T10:11:23.830Z,844.00
2023-02-16T10:12:23.757Z,824.00
2023-02-16T10:13:23.724Z,820.00
2023-02-16T10:14:23.678Z,828.00
2023-02-16T10:15:23.681Z,852.00
2023-02-16T10:16:23.612Z,876.00
2023-02-16T10:17:23.584Z,904.00
2023-02-16T10:18:23.543Z,936.00
2023-02-16T10:19:23.521Z,948.00
2023-02-16T10:20:23.470Z,932.00
2023-02-16T10:21:23.440Z,904.00
2023-02-16T10:22:23.400Z,864.00
2023-02-16T10:23:23.372Z,840.00
2023-02-16T10:24:23.330Z,832.00
2023-02-16T10:25:23.289Z,840.00
2023-02-16T10:26:23.258Z,864.00
2023-02-16T10:27:23.222Z,892.00
2023-02-16T10:28:23.205Z,932.00
2023-02-16T10:29:23.179Z,1000.00
2023-02-16T10:30:23.153Z,1088.00
2023-02-16T10:31:23.188Z,1164.00
2023-02-16T10:32:23.050Z,1212.00
2023-02-16T10:33:23.010Z,1252.00
2023-02-16T10:34:23.388Z,1280.00
2023-02-16T10:35:22.944Z,1284.00
2023-02-16T10:36:22.908Z,1304.00
2023-02-16T10:37:22.873Z,1328.00
2023-02-16T10:38:22.844Z,1352.00
2023-02-16T10:39:22.808Z,1384.00
2023-02-16T10:40:23.490Z,1444.00
2023-02-16T10:41:22.734Z,1540.00
2023-02-16T10:42:22.713Z,1660.00
2023-02-16T10:43:22.699Z,1792.00
2023-02-16T10:44:22.634Z,1892.00
2023-02-16T10:45:22.598Z,1944.00
2023-02-16T10:46:22.689Z,1952.00
2023-02-16T10:47:22.641Z,1920.00
2023-02-16T10:48:22.496Z,1828.00
2023-02-16T10:49:22.468Z,1712.00
2023-02-16T10:50:22.432Z,1600.00
2023-02-16T10:51:23.165Z,1492.00
2023-02-16T10:52:22.357Z,1372.00
2023-02-16T10:53:22.331Z,1248.00
2023-02-16T10:54:22.284Z,1132.00
2023-02-16T10:55:22.248Z,1040.00
2023-02-16T10:56:22.225Z,984.00
2023-02-16T10:57:22.181Z,932.00
2023-02-16T10:58:22.713Z,880.00
2023-02-16T10:59:22.120Z,832.00
2023-02-16T11:00:22.083Z,788.00
2023-02-16T11:01:22.070Z,760.00
2023-02-16T11:02:22.008Z,748.00
2023-02-16T11:03:22.026Z,740.00
2023-02-16T11:04:23.053Z,740.00
2023-02-16T11:05:21.907Z,740.00
2023-02-16T11:06:21.875Z,748.00
2023-02-16T11:07:21.843Z,756.00
2023-02-16T11:08:21.817Z,768.00
2023-02-16T11:09:21.810Z,772.00
2023-02-16T11:10:21.729Z,780.00
2023-02-16T11:11:21.695Z,780.00
2023-02-16T11:12:21.681Z,780.00
2023-02-16T11:13:21.626Z,780.00
2023-02-16T11:14:21.592Z,784.00
2023-02-16T11:15:21.553Z,788.00
2023-02-16T11:16:21.544Z,800.00
2023-02-16T11:17:21.489Z,816.00
2023-02-16T11:18:21.488Z,840.00
2023-02-16T11:19:21.425Z,864.00
2023-02-16T11:20:21.388Z,896.00
2023-02-16T11:21:21.348Z,920.00
2023-02-16T11:22:21.319Z,936.00
2023-02-16T11:23:21.280Z,936.00
2023-02-16T11:24:21.246Z,924.00
2023-02-16T11:25:21.226Z,920.00
2023-02-16T11:26:21.183Z,924.00
2023-02-16T11:27:21.147Z,940.00
2023-02-16T11:28:21.117Z,976.00
2023-02-16T11:29:21.093Z,1040.00
2023-02-16T11:30:21.084Z,1108.00
2023-02-16T11:31:21.130Z,1164.00
2023-02-16T11:32:21.017Z,1200.00
2023-02-16T11:33:20.938Z,1212.00
2023-02-16T11:34:20.901Z,1204.00
2023-02-16T11:35:20.890Z,1188.00
2023-02-16T11:36:20.836Z,1164.00
2023-02-16T11:37:20.826Z,1124.00
2023-02-16T11:38:20.763Z,1104.00
2023-02-16T11:39:20.734Z,1092.00
2023-02-16T11:40:20.698Z,1080.00
2023-02-16T11:41:20.664Z,1052.00
2023-02-16T11:42:20.634Z,1000.00
2023-02-16T11:43:20.601Z,944.00
2023-02-16T11:44:20.555Z,880.00
2023-02-16T11:45:20.519Z,808.00
2023-02-16T11:46:20.526Z,748.00
2023-02-16T11:47:20.448Z,696.00
2023-02-16T11:48:20.415Z,640.00
2023-02-16T11:49:20.394Z,588.00
2023-02-16T11:50:20.347Z,544.00
2023-02-16T11:51:20.959Z,512.00
2023-02-16T11:52:20.275Z,500.00
2023-02-16T11:53:20.242Z,504.00
2023-02-16T11:54:20.237Z,520.00
2023-02-16T11:55:20.251Z,528.00
2023-02-16T11:56:20.136Z,560.00
2023-02-16T11:57:20.102Z,576.00
2023-02-16T11:58:20.080Z,572.00
2023-02-16T11:59:20.034Z,588.00
2023-02-16T12:00:20.011Z,572.00
2023-02-16T12:01:19.965Z,528.00
2023-02-16T12:02:19.930Z,500.00
2023-02-16T12:03:19.898Z,516.00
2023-02-16T12:04:19.868Z,564.00
2023-02-16T12:05:19.913Z,612.00
2023-02-16T12:06:19.800Z,660.00
2023-02-16T12:07:19.761Z,696.00
2023-02-16T12:08:19.755Z,728.00
2023-02-16T12:09:19.696Z,724.00
2023-02-16T12:10:19.659Z,688.00
2023-02-16T12:11:19.628Z,652.00
2023-02-16T12:12:19.592Z,644.00
2023-02-16T12:13:19.559Z,676.00
2023-02-16T12:14:19.530Z,724.00
2023-02-16T12:15:19.485Z,788.00
2023-02-16T12:16:19.471Z,848.00
2023-02-16T12:17:19.417Z,876.00
2023-02-16T12:18:19.387Z,888.00
2023-02-16T12:19:19.355Z,876.00
2023-02-16T12:20:19.315Z,840.00
2023-02-16T12:21:19.972Z,800.00
2023-02-16T12:22:19.259Z,764.00
2023-02-16T12:23:19.227Z,720.00
2023-02-16T12:24:19.196Z,676.00
2023-02-16T12:25:19.157Z,628.00
2023-02-16T12:26:19.115Z,600.00
2023-02-16T12:27:19.131Z,584.00
2023-02-16T12:28:19.048Z,580.00
2023-02-16T12:29:19.009Z,576.00
2023-02-16T12:30:19.000Z,572.00
2023-02-16T12:31:19.079Z,576.00
2023-02-16T12:32:18.903Z,600.00
2023-02-16T12:33:18.869Z,624.00
2023-02-16T12:34:19.467Z,652.00
2023-02-16T12:35:19.365Z,684.00
2023-02-16T12:36:18.760Z,696.00
2023-02-16T12:37:18.731Z,708.00
2023-02-16T12:38:18.717Z,752.00
2023-02-16T12:39:18.663Z,832.00
2023-02-16T12:40:18.636Z,924.00
2023-02-16T12:41:18.604Z,988.00
2023-02-16T12:42:18.584Z,1024.00
2023-02-16T12:43:18.531Z,1040.00
2023-02-16T12:44:18.486Z,1072.00
2023-02-16T12:45:18.462Z,1116.00
2023-02-16T12:46:18.429Z,1144.00
2023-02-16T12:47:18.388Z,1144.00
2023-02-16T12:48:18.357Z,1152.00
2023-02-16T12:49:18.332Z,1196.00
2023-02-16T12:50:18.289Z,1264.00